createdAt,value
2018-08-17T00:01:47.373Z,6.20
2018-08-17T00:04:17.301Z,6.90
2018-08-17T00:06:47.418Z,6.37
2018-08-17T00:09:17.549Z,7.30
2018-08-17T00:11:47.459Z,5.30
2018-08-17T00:14:17.597Z,6.05
2018-08-17T00:16:47.578Z,4.95
2018-08-17T00:19:17.650Z,6.87
2018-08-17T00:21:47.690Z,6.08
2018-08-17T00:24:17.862Z,6.80
2018-08-17T00:26:47.818Z,5.92
2018-08-17T00:29:17.970Z,5.75
2018-08-17T00:31:48.030Z,4.53
2018-08-17T00:34:17.982Z,6.80
2018-08-17T00:36:48.134Z,5.15
2018-08-17T00:39:18.158Z,5.83
2018-08-17T00:41:48.270Z,4.72
2018-08-17T00:44:18.245Z,4.70
2018-08-17T00:46:48.306Z,5.10
2018-08-17T00:49:18.389Z,7.08
2018-08-17T00:51:48.485Z,9.08
2018-08-17T00:54:18.510Z,5.62
2018-08-17T00:56:48.641Z,5.70
2018-08-17T00:59:18.654Z,6.50
2018-08-17T01:01:48.714Z,4.17
2018-08-17T01:04:18.879Z,5.33
2018-08-17T01:06:48.838Z,4.03
2018-08-17T01:09:18.869Z,7.28
2018-08-17T01:11:48.986Z,5.40
2018-08-17T01:14:18.147Z,4.80
2018-08-17T01:16:47.307Z,5.40
2018-08-17T01:19:16.585Z,4.60
2018-08-17T01:21:46.006Z,5.10
2018-08-17T01:24:15.165Z,6.77
2018-08-17T01:26:44.337Z,5.17
2018-08-17T01:29:13.573Z,8.37
2018-08-17T01:31:42.690Z,4.23
2018-08-17T01:34:11.838Z,8.33
2018-08-17T01:36:40.982Z,5.05
2018-08-17T01:39:10.733Z,6.07
2018-08-17T01:41:40.131Z,7.55
2018-08-17T01:44:09.290Z,6.43
2018-08-17T01:46:38.468Z,7.08
2018-08-17T01:49:07.659Z,4.83
2018-08-17T01:51:36.799Z,7.33
2018-08-17T01:54:05.950Z,6.78
2018-08-17T01:56:35.092Z,7.80
2018-08-17T01:59:04.252Z,7.53
2018-08-17T02:01:33.407Z,6.30
2018-08-17T02:04:02.568Z,4.90
2018-08-17T02:06:31.731Z,5.53
2018-08-17T02:09:00.883Z,7.93
2018-08-17T02:11:30.031Z,5.86
2018-08-17T02:13:59.209Z,5.23
2018-08-17T02:16:28.376Z,4.37
2018-08-17T02:18:57.511Z,4.75
2018-08-17T02:21:26.665Z,4.40
2018-08-17T02:23:55.819Z,5.58
2018-08-17T02:26:24.966Z,5.00
2018-08-17T02:28:54.119Z,7.67
2018-08-17T02:31:24.535Z,6.90
2018-08-17T02:33:53.738Z,8.10
2018-08-17T02:36:22.918Z,4.90
2018-08-17T02:38:52.345Z,4.67
2018-08-17T02:41:21.499Z,4.70
2018-08-17T02:43:51.423Z,6.80
2018-08-17T02:46:21.626Z,4.72
2018-08-17T02:48:51.547Z,7.15
2018-08-17T02:51:21.731Z,5.05
2018-08-17T02:53:51.755Z,5.95
2018-08-17T02:56:21.803Z,4.97
2018-08-17T02:58:51.828Z,5.90
2018-08-17T03:01:21.915Z,7.10
2018-08-17T03:03:51.951Z,4.58
2018-08-17T03:06:22.065Z,4.95
2018-08-17T03:08:52.176Z,6.15
2018-08-17T03:11:22.283Z,6.30
2018-08-17T03:13:52.311Z,5.08
2018-08-17T03:16:22.330Z,5.67
2018-08-17T03:18:52.617Z,6.42
2018-08-17T03:21:22.548Z,4.40
2018-08-17T03:23:52.575Z,4.73
2018-08-17T03:26:22.852Z,5.42
2018-08-17T03:28:52.785Z,5.65
2018-08-17T03:31:22.823Z,4.37
2018-08-17T03:33:52.863Z,4.53
2018-08-17T03:36:22.882Z,3.70
2018-08-17T03:38:52.994Z,8.03
2018-08-17T03:41:24.443Z,6.53
2018-08-17T03:43:53.624Z,4.40
2018-08-17T03:46:23.387Z,4.55
2018-08-17T03:48:53.443Z,4.58
2018-08-17T03:51:24.566Z,3.87
2018-08-17T03:53:53.742Z,6.93
2018-08-17T03:56:24.867Z,4.33
2018-08-17T03:58:54.021Z,4.57
2018-08-17T04:01:24.879Z,6.78
2018-08-17T04:03:54.031Z,4.00
2018-08-17T04:06:23.782Z,3.85
2018-08-17T04:08:53.917Z,6.00
2018-08-17T04:11:24.026Z,5.10
2018-08-17T04:13:54.047Z,8.13
2018-08-17T04:16:24.215Z,4.05
2018-08-17T04:18:59.167Z,4.10
2018-08-17T04:21:29.504Z,4.85
2018-08-17T04:23:58.764Z,7.03
2018-08-17T04:26:27.802Z,4.80
2018-08-17T04:28:57.011Z,6.07
2018-08-17T04:32:05.479Z,7.33
2018-08-17T04:34:34.631Z,4.73
2018-08-17T04:37:03.883Z,3.83
2018-08-17T04:39:33.036Z,6.22
2018-08-17T04:42:02.190Z,4.43
2018-08-17T04:44:31.711Z,5.70
2018-08-17T04:47:00.877Z,5.80
2018-08-17T04:49:30.878Z,4.20
2018-08-17T04:52:02.057Z,5.86
2018-08-17T04:54:31.208Z,3.95
2018-08-17T04:57:01.599Z,7.28
2018-08-17T04:59:31.530Z,5.48
2018-08-17T05:02:01.579Z,4.78
2018-08-17T05:04:31.776Z,6.16
2018-08-17T05:07:02.116Z,5.83
2018-08-17T05:09:31.920Z,3.74
2018-08-17T05:12:02.015Z,5.50
2018-08-17T05:14:32.203Z,7.30
2018-08-17T05:17:02.175Z,5.85
2018-08-17T05:19:32.519Z,7.46
2018-08-17T05:22:02.835Z,5.95
2018-08-17T05:24:32.473Z,6.12
2018-08-17T05:27:01.620Z,5.00
2018-08-17T05:29:30.919Z,4.72
2018-08-17T05:32:00.146Z,3.57
2018-08-17T05:34:29.359Z,3.90
2018-08-17T05:36:58.524Z,5.97
2018-08-17T05:39:27.678Z,5.20
2018-08-17T05:41:56.858Z,5.90
2018-08-17T05:44:26.095Z,5.43
2018-08-17T05:46:55.333Z,9.28
2018-08-17T05:49:26.403Z,5.00
2018-08-17T05:51:55.631Z,6.47
2018-08-17T05:54:24.951Z,8.75
2018-08-17T05:56:54.092Z,5.07
2018-08-17T05:59:23.487Z,6.53
2018-08-17T06:01:52.634Z,4.80
2018-08-17T06:04:21.816Z,4.10
2018-08-17T06:06:50.951Z,5.40
2018-08-17T06:09:20.098Z,7.07
2018-08-17T06:11:49.327Z,7.90
2018-08-17T06:14:18.419Z,8.90
2018-08-17T06:16:47.607Z,8.15
2018-08-17T06:19:16.909Z,5.20
2018-08-17T06:21:46.039Z,5.93
2018-08-17T06:24:15.188Z,4.33
2018-08-17T06:26:44.397Z,8.23
2018-08-17T06:29:13.581Z,7.63
2018-08-17T06:31:42.952Z,6.12
2018-08-17T06:34:12.079Z,5.60
2018-08-17T06:36:41.219Z,5.73
2018-08-17T06:39:11.587Z,7.37
2018-08-17T06:41:41.699Z,6.10
2018-08-17T06:44:10.875Z,5.53
2018-08-17T06:46:40.100Z,6.37
2018-08-17T06:49:09.263Z,6.47
2018-08-17T06:51:38.403Z,4.47
2018-08-17T06:54:07.735Z,6.97
2018-08-17T06:56:36.904Z,5.22
2018-08-17T06:59:06.283Z,5.30
2018-08-17T07:01:35.428Z,4.93
2018-08-17T07:04:04.595Z,10.65
2018-08-17T07:06:33.744Z,6.60
2018-08-17T07:09:02.939Z,8.63
2018-08-17T07:11:32.040Z,6.00
2018-08-17T07:14:01.195Z,9.30
2018-08-17T07:16:30.405Z,8.93
2018-08-17T07:18:59.500Z,10.43
2018-08-17T07:21:28.670Z,7.40
2018-08-17T07:23:58.074Z,6.15
2018-08-17T07:26:27.704Z,6.17
2018-08-17T07:28:56.869Z,4.97
2018-08-17T07:31:26.813Z,10.63
2018-08-17T07:33:55.981Z,4.97
2018-08-17T07:36:25.655Z,7.27
2018-08-17T07:38:54.802Z,5.97
2018-08-17T07:41:26.004Z,7.50
2018-08-17T07:43:55.191Z,6.33
2018-08-17T07:46:25.442Z,6.65
2018-08-17T07:48:54.596Z,4.80
2018-08-17T07:51:25.143Z,6.45
2018-08-17T07:53:54.428Z,5.70
2018-08-17T07:56:25.183Z,9.85
2018-08-17T07:58:54.375Z,4.20
2018-08-17T08:01:25.307Z,5.22
2018-08-17T08:03:54.670Z,6.90
2018-08-17T08:06:24.220Z,4.30
2018-08-17T08:08:54.357Z,10.65
2018-08-17T08:11:24.367Z,7.05
2018-08-17T08:13:54.514Z,5.62
2018-08-17T08:16:24.491Z,3.75
2018-08-17T08:18:54.508Z,6.75
2018-08-17T08:21:24.651Z,5.42
2018-08-17T08:23:54.648Z,4.20
2018-08-17T08:26:24.720Z,3.98
2018-08-17T08:29:01.079Z,5.12
2018-08-17T08:31:30.619Z,3.77
2018-08-17T08:33:59.807Z,3.90
2018-08-17T08:36:28.947Z,6.08
2018-08-17T08:38:58.096Z,4.83
2018-08-17T08:41:27.788Z,4.63
2018-08-17T08:43:56.984Z,3.93
2018-08-17T08:46:26.571Z,6.30
2018-08-17T08:48:55.798Z,8.70
2018-08-17T08:51:26.576Z,4.28
2018-08-17T08:53:55.739Z,3.53
2018-08-17T08:56:26.738Z,4.53
2018-08-17T08:58:55.975Z,4.63
2018-08-17T09:07:09.452Z,6.57
2018-08-17T09:09:38.607Z,4.47
2018-08-17T09:12:07.769Z,4.03
2018-08-17T09:14:36.920Z,4.55
2018-08-17T09:17:06.184Z,5.45
2018-08-17T09:19:35.336Z,5.03
2018-08-17T09:22:04.575Z,5.47
2018-08-17T09:24:34.210Z,5.87
2018-08-17T09:27:03.371Z,5.35
2018-08-17T09:29:32.555Z,3.66
2018-08-17T09:32:01.708Z,4.03
2018-08-17T09:34:30.866Z,4.47
2018-08-17T09:37:00.015Z,4.37
2018-08-17T09:39:29.298Z,4.87
2018-08-17T09:41:58.520Z,4.63
2018-08-17T09:44:27.875Z,6.65
2018-08-17T09:46:57.055Z,6.60
2018-08-17T09:49:26.903Z,8.68
2018-08-17T09:51:56.903Z,8.55
2018-08-17T09:54:27.072Z,4.35
2018-08-17T09:56:57.262Z,4.22
2018-08-17T09:59:27.228Z,4.17
2018-08-17T10:02:03.419Z,4.74
2018-08-17T10:04:38.127Z,5.33
2018-08-17T10:07:12.970Z,4.45
2018-08-17T10:09:47.787Z,7.80
2018-08-17T10:12:16.951Z,4.33
2018-08-17T10:14:46.131Z,6.70
2018-08-17T10:17:15.371Z,6.97
2018-08-17T10:19:44.559Z,6.03
2018-08-17T10:22:13.740Z,5.03
2018-08-17T10:24:42.904Z,8.37
2018-08-17T10:27:12.052Z,4.80
2018-08-17T10:29:41.247Z,5.53
2018-08-17T10:32:10.511Z,4.43
2018-08-17T10:34:39.676Z,4.67
2018-08-17T10:37:09.171Z,6.67
2018-08-17T10:39:38.507Z,6.95
2018-08-17T10:42:07.678Z,4.93
2018-08-17T10:44:37.173Z,6.42
2018-08-17T10:47:06.535Z,5.03
2018-08-17T10:49:35.695Z,5.87
2018-08-17T10:52:05.114Z,4.72
2018-08-17T10:54:34.259Z,5.40
2018-08-17T10:57:08.100Z,6.47
2018-08-17T10:59:37.972Z,5.10
2018-08-17T11:02:07.190Z,5.28
2018-08-17T11:04:36.391Z,5.17
2018-08-17T11:07:05.792Z,7.57
2018-08-17T11:09:34.938Z,5.93
2018-08-17T11:12:04.097Z,4.83
2018-08-17T11:14:33.264Z,5.33
2018-08-17T11:17:03.002Z,5.28
2018-08-17T11:19:32.096Z,7.23
2018-08-17T11:22:01.371Z,6.33
2018-08-17T11:24:30.542Z,5.50
2018-08-17T11:26:59.800Z,7.93
2018-08-17T11:29:29.883Z,6.23
2018-08-17T11:31:59.940Z,5.50
2018-08-17T11:34:30.220Z,5.87
2018-08-17T11:42:03.776Z,4.80
2018-08-17T11:44:32.939Z,5.57
2018-08-17T11:47:02.136Z,7.23
2018-08-17T11:49:31.347Z,6.57
2018-08-17T11:52:00.720Z,3.77
2018-08-17T11:54:31.783Z,4.88
2018-08-17T11:57:01.032Z,6.30
2018-08-17T11:59:30.858Z,6.04
2018-08-17T12:02:01.292Z,4.87
2018-08-17T12:04:30.985Z,6.33
2018-08-17T12:07:01.112Z,6.05
2018-08-17T12:09:31.264Z,5.00
2018-08-17T12:12:01.347Z,8.70
2018-08-17T12:14:31.411Z,4.00
2018-08-17T12:17:01.544Z,3.62
2018-08-17T12:19:31.871Z,4.30
2018-08-17T12:22:01.696Z,4.85
2018-08-17T12:24:31.884Z,5.80
2018-08-17T12:27:01.868Z,6.03
2018-08-17T12:29:32.032Z,5.95
2018-08-17T12:32:02.008Z,4.28
2018-08-17T12:34:32.111Z,3.55
2018-08-17T12:37:02.454Z,4.35
2018-08-17T12:39:32.398Z,8.63
2018-08-17T12:42:02.543Z,5.87
2018-08-17T12:44:32.643Z,4.96
2018-08-17T12:47:01.800Z,3.63
2018-08-17T12:49:30.988Z,4.08
2018-08-17T12:52:00.156Z,5.57
2018-08-17T12:54:30.763Z,6.13
2018-08-17T12:57:00.894Z,7.37
2018-08-17T12:59:30.710Z,3.90
2018-08-17T13:01:59.891Z,6.40
2018-08-17T13:04:29.454Z,5.73
2018-08-17T13:06:58.921Z,5.60
2018-08-17T13:09:28.067Z,4.00
2018-08-17T13:12:00.499Z,4.57
2018-08-17T13:14:29.875Z,5.00
2018-08-17T13:17:01.044Z,3.77
2018-08-17T13:19:30.238Z,7.07
2018-08-17T13:21:59.411Z,3.93
2018-08-17T13:24:28.563Z,5.70
2018-08-17T13:26:57.732Z,4.97
2018-08-17T13:29:26.944Z,10.53
2018-08-17T13:31:56.611Z,5.20
2018-08-17T13:34:36.679Z,6.07
2018-08-17T13:37:06.094Z,6.97
2018-08-17T13:39:35.273Z,7.73
2018-08-17T13:42:04.447Z,5.50
2018-08-17T13:44:34.505Z,6.68
2018-08-17T13:47:04.718Z,5.80
2018-08-17T13:49:34.667Z,5.46
2018-08-17T13:52:04.677Z,6.43
2018-08-17T13:54:34.811Z,5.30
2018-08-17T13:57:04.952Z,6.10
2018-08-17T13:59:35.022Z,5.22
2018-08-17T14:02:05.769Z,4.30
2018-08-17T14:04:35.148Z,7.47
2018-08-17T14:07:05.476Z,4.77
2018-08-17T14:09:35.351Z,6.30
2018-08-17T14:12:05.615Z,5.65
2018-08-17T14:14:35.471Z,6.65
2018-08-17T14:17:06.334Z,6.22
2018-08-17T14:19:35.961Z,11.05
2018-08-17T14:22:05.740Z,9.05
2018-08-17T14:24:35.842Z,9.52
2018-08-17T14:27:05.924Z,7.53
2018-08-17T14:29:36.075Z,5.76
2018-08-17T14:32:06.670Z,5.45
2018-08-17T14:34:36.211Z,5.53
2018-08-17T14:37:06.442Z,9.33
2018-08-17T14:39:36.403Z,6.83
2018-08-17T14:42:06.868Z,7.28
2018-08-17T14:44:36.891Z,6.95
2018-08-17T14:47:06.912Z,5.92
2018-08-17T14:49:36.735Z,7.58
2018-08-17T14:52:06.860Z,5.72
2018-08-17T14:54:36.975Z,6.75
2018-08-17T14:57:07.230Z,8.00
2018-08-17T14:59:37.128Z,9.16
2018-08-17T15:02:07.391Z,6.15
2018-08-17T15:04:37.344Z,4.33
2018-08-17T15:07:07.496Z,5.56
2018-08-17T15:09:36.727Z,3.00
2018-08-17T15:12:06.036Z,6.47
2018-08-17T15:14:35.175Z,5.53
2018-08-17T15:17:04.327Z,4.57
2018-08-17T15:19:33.475Z,8.47
2018-08-17T15:22:02.719Z,6.80
2018-08-17T15:24:32.126Z,6.90
2018-08-17T15:27:01.288Z,3.37
2018-08-17T15:29:30.438Z,4.23
2018-08-17T15:31:59.584Z,7.07
2018-08-17T15:34:28.727Z,6.13
2018-08-17T15:36:58.013Z,5.13
2018-08-17T15:39:27.159Z,5.43
2018-08-17T15:41:56.428Z,4.22
2018-08-17T15:44:27.326Z,3.60
2018-08-17T15:46:57.664Z,4.20
2018-08-17T15:49:33.122Z,4.83
2018-08-17T15:52:03.487Z,4.83
2018-08-17T15:54:32.619Z,8.37
2018-08-17T15:57:01.781Z,8.37
2018-08-17T15:59:30.932Z,4.03
2018-08-17T16:02:00.171Z,4.13
2018-08-17T16:04:29.324Z,6.80
2018-08-17T16:06:58.488Z,6.93
2018-08-17T16:09:27.647Z,6.53
2018-08-17T16:11:56.795Z,5.03
2018-08-17T16:14:26.839Z,4.66
2018-08-17T16:17:01.547Z,6.43
2018-08-17T16:19:31.367Z,4.33
2018-08-17T16:22:00.531Z,5.97
2018-08-17T16:24:29.727Z,4.67
2018-08-17T16:26:58.875Z,4.60
2018-08-17T16:29:28.031Z,3.70
2018-08-17T16:31:57.258Z,7.95
2018-08-17T16:34:26.772Z,6.05
2018-08-17T16:36:55.945Z,4.75
2018-08-17T16:39:25.274Z,4.67
2018-08-17T16:41:54.865Z,5.35
2018-08-17T16:44:24.543Z,4.33
2018-08-17T16:46:53.724Z,4.53
2018-08-17T16:49:22.988Z,5.33
2018-08-17T16:51:52.226Z,5.37
2018-08-17T16:54:21.397Z,5.20
2018-08-17T16:56:50.592Z,4.27
2018-08-17T16:59:19.759Z,7.60
2018-08-17T17:01:49.335Z,5.08
2018-08-17T17:04:19.083Z,4.42
2018-08-17T17:06:48.216Z,5.17
2018-08-17T17:09:17.391Z,4.83
2018-08-17T17:11:46.581Z,6.03
2018-08-17T17:14:15.755Z,4.80
2018-08-17T17:16:48.015Z,6.53
2018-08-17T17:19:20.055Z,4.53
2018-08-17T17:21:50.171Z,5.60
2018-08-17T17:24:19.949Z,5.12
2018-08-17T17:26:49.153Z,5.72
2018-08-17T17:29:18.317Z,9.67
2018-08-17T17:31:50.902Z,13.73
2018-08-17T17:34:20.115Z,10.38
2018-08-17T17:36:49.271Z,12.68
2018-08-17T17:39:18.448Z,9.40
2018-08-17T17:41:47.608Z,10.15
2018-08-17T17:44:16.767Z,11.13
2018-08-17T17:46:45.913Z,11.07
2018-08-17T17:49:15.091Z,13.53
2018-08-17T17:51:44.267Z,10.48
2018-08-17T17:54:24.461Z,12.00
2018-08-17T17:57:00.815Z,11.77
2018-08-17T17:59:30.248Z,12.80
2018-08-17T18:01:59.415Z,10.58
2018-08-17T18:04:31.790Z,10.60
2018-08-17T18:07:01.282Z,9.80
2018-08-17T18:09:30.439Z,8.70
2018-08-17T18:11:59.599Z,11.60
2018-08-17T18:14:28.812Z,12.30
2018-08-17T18:16:57.964Z,11.73
2018-08-17T18:19:27.119Z,12.83
2018-08-17T18:21:56.263Z,10.55
2018-08-17T18:24:25.439Z,10.03
2018-08-17T18:26:54.680Z,10.80
2018-08-17T18:29:23.844Z,9.53
2018-08-17T18:31:53.007Z,8.60
2018-08-17T18:34:22.159Z,9.17
2018-08-17T18:36:51.315Z,8.48
2018-08-17T18:39:20.479Z,11.47
2018-08-17T18:41:49.618Z,9.50
2018-08-17T18:44:18.775Z,6.97
2018-08-17T18:46:47.943Z,8.17
2018-08-17T18:49:17.159Z,8.27
2018-08-17T18:51:46.314Z,8.30
2018-08-17T18:54:15.468Z,8.37
2018-08-17T18:56:45.556Z,7.64
2018-08-17T18:59:15.630Z,7.77
2018-08-17T19:01:45.755Z,7.06
2018-08-17T19:04:15.832Z,5.90
2018-08-17T19:06:46.355Z,5.60
2018-08-17T19:09:16.055Z,9.00
2018-08-17T19:11:46.143Z,5.90
2018-08-17T19:14:16.255Z,8.80
2018-08-17T19:16:46.423Z,6.05
2018-08-17T19:19:16.506Z,8.65
2018-08-17T19:21:46.684Z,8.45
2018-08-17T19:24:16.867Z,6.35
2018-08-17T19:26:47.087Z,7.75
2018-08-17T19:29:16.881Z,5.35
2018-08-17T19:31:56.132Z,6.22
2018-08-17T19:34:28.157Z,7.43
2018-08-17T19:36:57.347Z,6.35
2018-08-17T19:39:32.082Z,9.13
2018-08-17T19:42:01.361Z,5.03
2018-08-17T19:44:30.846Z,5.80
2018-08-17T19:46:59.991Z,5.90
2018-08-17T19:49:29.368Z,6.47
2018-08-17T19:51:58.515Z,5.55
2018-08-17T19:54:27.667Z,9.20
2018-08-17T19:56:56.848Z,6.08
2018-08-17T19:59:26.020Z,5.67
2018-08-17T20:01:55.390Z,8.65
2018-08-17T20:04:24.531Z,6.13
2018-08-17T20:06:53.739Z,6.60
2018-08-17T20:09:22.882Z,6.97
2018-08-17T20:11:52.138Z,5.20
2018-08-17T20:14:21.340Z,7.77
2018-08-17T20:16:50.504Z,5.57
2018-08-17T20:19:19.660Z,6.33
2018-08-17T20:21:48.815Z,8.07
2018-08-17T20:24:18.677Z,6.10
2018-08-17T20:26:51.847Z,6.05
2018-08-17T20:29:20.920Z,8.37
2018-08-17T20:31:50.122Z,8.67
2018-08-17T20:34:19.409Z,6.30
2018-08-17T20:36:48.939Z,5.83
2018-08-17T20:39:18.135Z,6.30
2018-08-17T20:41:47.291Z,8.43
2018-08-17T20:44:16.495Z,16.10
2018-08-17T20:46:45.727Z,16.53
2018-08-17T20:49:14.892Z,8.83
2018-08-17T20:51:51.179Z,14.27
2018-08-17T20:54:20.331Z,9.67
2018-08-17T20:56:49.482Z,8.93
2018-08-17T20:59:20.103Z,10.72
2018-08-17T21:01:49.328Z,7.40
2018-08-17T21:04:19.415Z,9.70
2018-08-17T21:06:49.655Z,10.23
2018-08-17T21:09:19.752Z,8.23
2018-08-17T21:11:49.611Z,7.20
2018-08-17T21:14:19.779Z,9.13
2018-08-17T21:16:49.663Z,8.80
2018-08-17T21:19:32.900Z,7.40
2018-08-17T21:22:02.157Z,7.43
2018-08-17T21:24:31.323Z,9.80
2018-08-17T21:27:01.269Z,7.63
2018-08-17T21:29:30.499Z,8.27
2018-08-17T21:31:59.580Z,7.30
2018-08-17T21:34:28.763Z,8.77
2018-08-17T21:36:57.927Z,10.60
2018-08-17T21:39:27.494Z,9.55
2018-08-17T21:41:56.980Z,7.33
2018-08-17T21:44:26.148Z,9.60
2018-08-17T21:47:00.547Z,10.87
2018-08-17T21:49:29.704Z,10.07
2018-08-17T21:52:01.118Z,7.60
2018-08-17T21:54:31.935Z,10.50
2018-08-17T21:57:01.964Z,11.28
2018-08-17T21:59:49.725Z,10.00
2018-08-17T22:02:19.638Z,10.20
2018-08-17T22:04:48.811Z,12.73
2018-08-17T22:07:20.776Z,11.90
2018-08-17T22:09:51.449Z,11.22
2018-08-17T22:12:20.966Z,12.03
2018-08-17T22:14:50.914Z,14.40
2018-08-17T22:17:36.003Z,12.78
2018-08-17T22:20:08.825Z,10.50
2018-08-17T22:22:38.082Z,12.13
2018-08-17T22:25:12.651Z,12.67
2018-08-17T22:27:41.848Z,12.97
2018-08-17T22:30:19.823Z,10.90
2018-08-17T22:32:48.946Z,11.60
2018-08-17T22:35:18.323Z,12.20
2018-08-17T22:37:47.506Z,11.83
2018-08-17T22:40:16.659Z,9.77
2018-08-17T22:42:47.988Z,12.93
2018-08-17T22:45:17.280Z,11.53
2018-08-17T22:47:46.568Z,10.50
2018-08-17T22:50:15.713Z,13.80
2018-08-17T22:52:44.878Z,12.67
2018-08-17T22:55:14.296Z,12.37
2018-08-17T22:57:43.466Z,10.10
2018-08-17T23:00:18.488Z,10.13
2018-08-17T23:02:49.011Z,12.20
2018-08-17T23:05:23.335Z,12.97
2018-08-17T23:07:52.491Z,9.77
2018-08-17T23:10:23.148Z,10.30
2018-08-17T23:12:53.115Z,11.03
2018-08-17T23:15:22.310Z,11.70
2018-08-17T23:17:53.411Z,12.63
2018-08-17T23:20:27.778Z,11.17
2018-08-17T23:22:58.055Z,11.57
2018-08-17T23:25:27.802Z,11.28
2018-08-17T23:27:56.976Z,10.53
2018-08-17T23:30:26.120Z,12.77
2018-08-17T23:32:55.283Z,16.13
2018-08-17T23:35:24.431Z,13.47
2018-08-17T23:37:53.606Z,13.90
2018-08-17T23:40:22.746Z,11.53
2018-08-17T23:42:52.868Z,15.20
2018-08-17T23:45:23.039Z,16.35
2018-08-17T23:47:52.230Z,15.30
2018-08-17T23:50:21.375Z,13.43
2018-08-17T23:52:50.583Z,18.00
2018-08-17T23:55:19.771Z,14.73
2018-08-17T23:57:48.931Z,13.30
